Time;durP1;ratioP1;P1;durP2;ratioP2;P2;SDS_P1;SDS_P2;PMS_P1;PMS_P2;Temp;Humidity;BMP_temperature;BMP_pressure;BME280_temperature;BME280_humidity;BME280_pressure;Samples;Min_cycle;Max_cycle;Signal;HPM_P1;HPM_P2
2021/09/28 00:02:05;;;;;;;5.32;4.82;;;;;;;14.72;92.37;96533.16;5110163;27;20480;-66
2021/09/28 00:04:30;;;;;;;4.38;4.07;;;;;;;14.75;91.99;96540.81;5105777;27;20036;-66
2021/09/28 00:06:56;;;;;;;6.32;4.30;;;;;;;14.75;92.12;96532.84;5101109;27;20035;-66
2021/09/28 00:09:21;;;;;;;4.93;4.38;;;;;;;14.81;91.66;96534.06;5097968;28;20119;-66
2021/09/28 00:11:50;;;;;;;4.53;3.95;;;;;;;14.86;91.65;96537.94;5076975;28;20518;-66
2021/09/28 00:14:17;;;;;;;4.45;4.05;;;;;;;14.85;91.82;96535.44;5105056;27;20023;-67
2021/09/28 00:16:43;;;;;;;12.32;4.18;;;;;;;14.92;91.37;96538.31;5102348;28;20080;-66
2021/09/28 00:19:08;;;;;;;7.82;4.22;;;;;;;14.98;89.82;96529.78;5100614;27;20020;-66
2021/09/28 00:21:33;;;;;;;4.22;3.90;;;;;;;15.04;89.33;96523.88;5102282;27;20478;-66
2021/09/28 00:23:59;;;;;;;7.00;3.80;;;;;;;15.09;88.87;96523.44;5100245;27;20467;-66
2021/09/28 00:26:24;;;;;;;4.43;4.03;;;;;;;15.09;88.65;96528.75;5106490;27;20028;-66
2021/09/28 00:28:49;;;;;;;6.25;4.03;;;;;;;15.07;88.83;96534.19;5105279;27;20506;-66
2021/09/28 00:31:15;;;;;;;6.47;4.10;;;;;;;15.02;89.09;96529.31;5106724;27;20447;-66
2021/09/28 00:33:41;;;;;;;3.92;3.63;;;;;;;14.98;89.68;96529.78;5099301;27;20027;-66
2021/09/28 00:36:06;;;;;;;9.32;3.90;;;;;;;14.94;89.72;96526.59;5103680;27;20030;-66
2021/09/28 00:38:31;;;;;;;4.03;3.65;;;;;;;14.89;90.16;96521.72;5095883;28;20037;-66
2021/09/28 00:40:57;;;;;;;3.60;3.30;;;;;;;14.92;88.77;96525.06;5095822;28;20024;-67
2021/09/28 00:43:23;;;;;;;5.32;3.45;;;;;;;14.99;87.62;96523.50;5095188;28;20078;-67
2021/09/28 00:45:48;;;;;;;4.28;3.08;;;;;;;15.10;85.61;96517.16;5104674;28;20427;-67
2021/09/28 00:48:14;;;;;;;4.85;3.10;;;;;;;15.12;84.92;96521.31;5110559;28;20550;-67
2021/09/28 00:50:40;;;;;;;6.45;3.25;;;;;;;15.08;86.04;96517.28;5107510;28;20012;-66
2021/09/28 00:53:05;;;;;;;4.60;3.17;;;;;;;15.05;85.69;96514.94;5108203;28;20031;-66
2021/09/28 00:55:31;;;;;;;3.38;2.95;;;;;;;15.02;85.04;96518.72;5102978;27;20614;-66
2021/09/28 00:57:57;;;;;;;3.92;2.67;;;;;;;15.02;84.47;96512.59;5112414;28;20031;-66
2021/09/28 01:00:24;;;;;;;7.43;2.67;;;;;;;15.00;84.66;96512.72;5109987;27;20397;-67
2021/09/28 01:02:52;;;;;;;2.97;2.55;;;;;;;14.99;84.38;96512.91;5112170;28;20062;-67
2021/09/28 01:05:17;;;;;;;5.03;2.58;;;;;;;14.99;84.08;96512.91;5113375;27;20047;-67
2021/09/28 01:07:43;;;;;;;3.75;2.60;;;;;;;15.02;83.10;96507.28;5112376;27;20091;-67
2021/09/28 01:10:08;;;;;;;5.35;2.40;;;;;;;15.05;82.68;96509.66;5112288;28;20088;-66
2021/09/28 01:12:34;;;;;;;2.95;2.60;;;;;;;15.07;82.12;96506.84;5111628;28;20039;-66
2021/09/28 01:14:59;;;;;;;6.97;2.42;;;;;;;15.02;83.00;96500.16;5095736;27;20140;-66
2021/09/28 01:17:25;;;;;;;3.30;2.55;;;;;;;14.97;83.49;96497.13;5101316;28;20024;-66
2021/09/28 01:19:50;;;;;;;3.35;2.53;;;;;;;14.93;84.83;96502.91;5105760;28;20032;-66
2021/09/28 01:22:16;;;;;;;4.15;2.60;;;;;;;14.87;85.65;96491.88;5110555;28;20080;-66
2021/09/28 01:24:44;;;;;;;3.33;3.03;;;;;;;14.84;86.50;96486.06;5109340;28;20410;-66
2021/09/28 01:27:09;;;;;;;2.47;2.38;;;;;;;14.82;86.88;96491.50;5104028;28;20025;-66
2021/09/28 01:29:35;;;;;;;4.50;2.72;;;;;;;14.81;86.96;96486.34;5091788;28;20028;-66
2021/09/28 01:32:00;;;;;;;4.18;2.97;;;;;;;14.75;87.80;96483.31;5103962;28;20020;-67
2021/09/28 01:34:26;;;;;;;3.40;2.60;;;;;;;14.75;88.38;96488.63;5095093;28;20413;-66
2021/09/28 01:36:51;;;;;;;5.90;3.10;;;;;;;14.72;88.47;96473.00;5110531;27;20016;-66
2021/09/28 01:39:19;;;;;;;2.88;2.47;;;;;;;14.70;87.96;96480.25;5096959;28;20020;-66
2021/09/28 01:41:45;;;;;;;4.00;2.95;;;;;;;14.69;88.38;96478.59;5095857;28;20043;-66
2021/09/28 01:44:12;;;;;;;7.45;3.05;;;;;;;14.68;88.34;96470.78;5093871;28;20060;-66
2021/09/28 01:46:40;;;;;;;3.33;2.75;;;;;;;14.67;87.38;96467.31;5098253;28;20012;-66
2021/09/28 01:49:07;;;;;;;2.65;2.50;;;;;;;14.64;87.69;96464.94;5093564;28;20027;-66
2021/09/28 01:51:32;;;;;;;3.45;3.13;;;;;;;14.61;87.72;96457.31;5106439;27;20015;-66
2021/09/28 01:53:58;;;;;;;4.32;2.60;;;;;;;14.57;87.41;96456.75;5099357;27;20027;-66
2021/09/28 01:56:25;;;;;;;3.40;2.50;;;;;;;14.54;87.39;96459.72;5092779;28;20020;-66
2021/09/28 01:58:52;;;;;;;2.83;2.47;;;;;;;14.53;87.58;96450.09;5098014;28;20035;-66
2021/09/28 02:01:17;;;;;;;5.43;2.60;;;;;;;14.53;87.18;96452.75;5092592;28;20032;-66
2021/09/28 02:03:43;;;;;;;3.80;2.60;;;;;;;14.51;86.45;96454.72;5094328;28;20444;-66
2021/09/28 02:06:09;;;;;;;2.65;2.45;;;;;;;14.51;86.09;96449.41;5094832;28;20024;-67
2021/09/28 02:08:34;;;;;;;2.90;2.50;;;;;;;14.50;85.73;96446.91;5111120;28;20023;-66
2021/09/28 02:10:59;;;;;;;4.60;2.70;;;;;;;14.49;85.88;96446.06;5109798;28;20115;-66
2021/09/28 02:13:25;;;;;;;2.67;2.45;;;;;;;14.46;86.09;96446.34;5116492;27;20015;-66
2021/09/28 02:15:50;;;;;;;3.45;2.45;;;;;;;14.46;85.87;96438.41;5131990;27;20096;-67
2021/09/28 02:18:16;;;;;;;5.78;2.60;;;;;;;14.43;86.70;96439.53;5131305;27;20027;-66
2021/09/28 02:20:41;;;;;;;3.28;2.50;;;;;;;14.41;87.49;96435.38;5123713;27;20032;-66
2021/09/28 02:23:07;;;;;;;6.63;2.78;;;;;;;14.37;87.92;96437.50;5124467;27;20027;-66
2021/09/28 02:25:33;;;;;;;4.82;2.67;;;;;;;14.36;87.75;96433.16;5091759;28;20031;-66
2021/09/28 02:27:58;;;;;;;2.75;2.50;;;;;;;14.35;87.21;96436.78;5090667;27;20020;-66
2021/09/28 02:30:23;;;;;;;2.88;2.58;;;;;;;14.35;87.47;96438.63;5110772;27;20456;-66
2021/09/28 02:32:49;;;;;;;2.58;2.30;;;;;;;14.33;87.40;96431.66;5113473;27;20028;-66
2021/09/28 02:35:14;;;;;;;2.92;2.53;;;;;;;14.31;87.35;96441.56;5110363;28;20519;-66
2021/09/28 02:37:40;;;;;;;3.72;2.45;;;;;;;14.32;87.17;96427.34;5109002;28;20031;-66
2021/09/28 02:40:07;;;;;;;3.85;2.50;;;;;;;14.30;87.53;96429.31;5104968;28;20034;-66
2021/09/28 02:42:33;;;;;;;6.05;2.83;;;;;;;14.30;87.44;96431.94;5106911;28;20483;-66
2021/09/28 02:44:58;;;;;;;2.38;2.17;;;;;;;14.28;88.09;96427.75;5106609;27;20031;-66
2021/09/28 02:47:24;;;;;;;5.35;2.70;;;;;;;14.26;87.90;96435.88;5119279;27;20042;-66
2021/09/28 02:49:49;;;;;;;3.10;2.65;;;;;;;14.27;88.49;96434.91;5115860;27;20133;-66
2021/09/28 02:52:15;;;;;;;5.07;2.42;;;;;;;14.27;88.68;96437.53;5115202;27;20523;-66
2021/09/28 02:54:42;;;;;;;3.40;2.45;;;;;;;14.26;88.71;96433.22;5089558;28;20108;-66
2021/09/28 02:57:07;;;;;;;4.43;2.30;;;;;;;14.22;88.80;96431.81;5117778;27;20136;-66
2021/09/28 02:59:33;;;;;;;2.22;1.95;;;;;;;14.21;89.54;96424.88;5088341;28;20451;-65
2021/09/28 03:01:58;;;;;;;2.40;2.20;;;;;;;14.22;88.63;96425.72;5121220;27;20019;-65
2021/09/28 03:04:24;;;;;;;5.20;3.25;;;;;;;14.21;89.70;96424.06;5109743;28;20027;-65
2021/09/28 03:06:49;;;;;;;2.42;2.22;;;;;;;14.19;89.35;96429.47;5123225;27;20485;-65
2021/09/28 03:09:14;;;;;;;2.30;2.20;;;;;;;14.20;90.19;96430.31;5109521;28;20504;-65
2021/09/28 03:11:40;;;;;;;2.72;2.45;;;;;;;14.18;90.35;96425.16;5095953;28;20051;-66
2021/09/28 03:14:06;;;;;;;2.25;2.15;;;;;;;14.17;90.69;96424.34;5094051;28;20023;-66
2021/09/28 03:16:31;;;;;;;5.45;2.40;;;;;;;14.18;90.86;96411.91;5109330;28;20066;-65
2021/09/28 03:18:56;;;;;;;2.30;2.10;;;;;;;14.19;90.75;96408.28;5091387;28;20031;-66
2021/09/28 03:21:22;;;;;;;2.55;2.08;;;;;;;14.17;90.76;96413.75;5106802;27;20031;-66
2021/09/28 03:23:47;;;;;;;2.28;2.10;;;;;;;14.15;90.43;96406.94;5129195;28;20520;-66
2021/09/28 03:26:13;;;;;;;5.05;2.30;;;;;;;14.12;89.46;96410.69;5108626;28;20436;-66
2021/09/28 03:28:38;;;;;;;2.70;2.08;;;;;;;14.09;89.66;96415.47;5109667;28;20027;-66
2021/09/28 03:31:03;;;;;;;2.65;2.03;;;;;;;14.10;89.40;96414.47;5108772;28;20023;-66
2021/09/28 03:33:29;;;;;;;4.30;2.80;;;;;;;14.07;89.47;96409.47;5109166;28;20024;-66
2021/09/28 03:35:56;;;;;;;2.30;2.13;;;;;;;14.08;89.62;96411.97;5109172;28;20119;-65
2021/09/28 03:38:21;;;;;;;3.72;2.17;;;;;;;14.07;90.21;96412.13;5109805;28;20095;-65
2021/09/28 03:40:47;;;;;;;2.92;2.00;;;;;;;14.04;90.16;96408.78;5112347;28;20123;-65
2021/09/28 03:43:13;;;;;;;3.47;2.17;;;;;;;14.03;90.61;96409.75;5111341;28;20566;-65
2021/09/28 03:45:38;;;;;;;5.45;2.13;;;;;;;14.02;90.84;96407.25;5112572;28;20476;-65
2021/09/28 03:48:05;;;;;;;3.47;1.98;;;;;;;14.01;90.53;96408.25;5110908;28;20031;-65
2021/09/28 03:50:31;;;;;;;4.03;2.22;;;;;;;13.96;90.48;96408.66;5112110;28;20089;-65
2021/09/28 03:52:57;;;;;;;4.45;2.28;;;;;;;13.94;90.50;96409.81;5111697;27;20031;-65
2021/09/28 03:55:23;;;;;;;5.63;1.70;;;;;;;13.93;90.65;96397.56;5111521;27;20016;-65
2021/09/28 03:57:49;;;;;;;3.83;2.05;;;;;;;13.95;89.94;96399.06;5093613;28;20039;-65
2021/09/28 04:00:16;;;;;;;7.68;2.33;;;;;;;13.94;90.14;96397.41;5113904;27;20024;-66
2021/09/28 04:02:42;;;;;;;4.82;2.00;;;;;;;13.89;90.32;96387.25;5108754;28;20035;-67
2021/09/28 04:05:08;;;;;;;3.42;1.70;;;;;;;13.88;90.18;96390.06;5113548;27;20020;-66
2021/09/28 04:07:35;;;;;;;2.00;1.80;;;;;;;13.85;90.24;96380.56;5107350;28;20047;-65
2021/09/28 04:10:01;;;;;;;3.08;1.90;;;;;;;13.84;90.21;96388.69;5105870;28;20406;-66
2021/09/28 04:12:27;;;;;;;2.28;2.00;;;;;;;13.79;90.63;96378.53;5097105;28;20019;-64
2021/09/28 04:14:55;;;;;;;2.80;1.77;;;;;;;13.77;91.06;96387.56;5107383;28;20077;-64
2021/09/28 04:17:20;;;;;;;5.18;2.03;;;;;;;13.75;91.51;96385.09;5105189;27;20024;-65
2021/09/28 04:19:46;;;;;;;1.95;1.85;;;;;;;13.75;90.92;96383.25;5108667;28;20020;-67
2021/09/28 04:22:11;;;;;;;6.93;2.20;;;;;;;13.79;90.08;96382.97;5123477;27;20098;-66
2021/09/28 04:24:37;;;;;;;2.58;1.80;;;;;;;13.77;89.63;96383.13;5106006;28;20062;-65
2021/09/28 04:27:02;;;;;;;3.00;1.77;;;;;;;13.75;89.73;96385.91;5093110;28;20069;-64
2021/09/28 04:29:28;;;;;;;4.45;2.08;;;;;;;13.77;90.10;96376.97;5111975;28;20027;-64
2021/09/28 04:31:53;;;;;;;3.03;2.25;;;;;;;13.74;90.45;96373.66;5113206;28;20020;-64
2021/09/28 04:34:19;;;;;;;2.75;1.95;;;;;;;13.73;90.58;96382.56;5105478;28;20038;-64
2021/09/28 04:36:44;;;;;;;5.43;1.83;;;;;;;13.70;90.12;96376.72;5106670;28;20368;-64
2021/09/28 04:39:09;;;;;;;2.97;1.45;;;;;;;13.66;89.22;96373.56;5107610;28;20028;-64
2021/09/28 04:41:35;;;;;;;2.92;1.63;;;;;;;13.64;89.27;96380.81;5110236;28;20023;-64
2021/09/28 04:44:00;;;;;;;2.88;1.85;;;;;;;13.62;89.63;96380.13;5115217;27;20055;-64
2021/09/28 04:46:26;;;;;;;16.23;2.10;;;;;;;13.60;90.27;96376.78;5105668;28;20097;-64
2021/09/28 04:48:52;;;;;;;3.75;1.70;;;;;;;13.56;90.33;96378.03;5101638;28;20038;-64
2021/09/28 04:51:17;;;;;;;3.08;1.60;;;;;;;13.54;90.79;96380.84;5107010;28;20394;-65
2021/09/28 04:53:42;;;;;;;2.60;2.38;;;;;;;13.51;91.11;96378.47;5108833;27;20023;-64
2021/09/28 04:56:08;;;;;;;4.97;1.90;;;;;;;13.49;90.82;96377.78;5110792;28;20024;-65
2021/09/28 04:58:33;;;;;;;4.80;1.80;;;;;;;13.49;91.82;96375.16;5109831;28;20482;-64
2021/09/28 05:00:59;;;;;;;3.22;1.70;;;;;;;13.50;91.93;96373.31;5114675;27;20455;-64
2021/09/28 05:03:24;;;;;;;3.08;1.80;;;;;;;13.49;91.84;96369.00;5109143;28;20102;-64
2021/09/28 05:05:49;;;;;;;1.83;1.70;;;;;;;13.49;91.85;96369.00;5104639;28;20032;-64
2021/09/28 05:08:15;;;;;;;2.58;1.65;;;;;;;13.51;91.28;96372.34;5110546;27;20023;-65
2021/09/28 05:10:40;;;;;;;3.22;2.00;;;;;;;13.50;90.81;96365.38;5107212;28;20024;-66
2021/09/28 05:13:06;;;;;;;6.95;2.30;;;;;;;13.49;91.31;96364.56;5096750;28;20462;-65
2021/09/28 05:15:32;;;;;;;6.78;2.08;;;;;;;13.45;91.83;96364.00;5105864;28;20030;-66
2021/09/28 05:17:57;;;;;;;2.40;2.03;;;;;;;13.43;92.27;96371.25;5099942;28;20131;-65
2021/09/28 05:20:23;;;;;;;2.20;2.10;;;;;;;13.44;92.87;96369.44;5108903;27;20103;-65
2021/09/28 05:22:48;;;;;;;4.50;2.13;;;;;;;13.44;93.30;96364.97;5132925;27;20471;-64
2021/09/28 05:25:13;;;;;;;2.05;1.95;;;;;;;13.43;93.44;96365.97;5119958;27;20418;-65
2021/09/28 05:27:39;;;;;;;5.40;1.95;;;;;;;13.44;93.55;96367.63;5093508;28;20436;-65
2021/09/28 05:30:05;;;;;;;3.33;1.95;;;;;;;13.44;93.60;96367.63;5092144;28;20036;-65
2021/09/28 05:32:31;;;;;;;2.53;1.63;;;;;;;13.42;93.67;96368.72;5105358;27;20088;-65
2021/09/28 05:34:56;;;;;;;3.90;1.70;;;;;;;13.42;92.92;96374.00;5112937;27;20122;-65
2021/09/28 05:37:22;;;;;;;9.68;2.22;;;;;;;13.44;92.15;96374.72;5113029;27;20023;-65
2021/09/28 05:39:47;;;;;;;7.40;2.20;;;;;;;13.42;91.73;96371.34;5109267;27;20028;-65
2021/09/28 05:42:13;;;;;;;4.20;1.92;;;;;;;13.43;93.01;96370.41;5107869;27;20030;-65
2021/09/28 05:44:38;;;;;;;2.85;1.90;;;;;;;13.41;93.38;96367.03;5104062;28;20020;-65
2021/09/28 05:47:04;;;;;;;2.45;2.10;;;;;;;13.44;93.09;96372.91;5105342;28;20432;-68
2021/09/28 05:49:33;;;;;;;2.65;1.90;;;;;;;13.49;92.92;96374.28;5106564;27;20398;-64
2021/09/28 05:52:02;;;;;;;5.60;2.63;;;;;;;13.47;91.95;96369.13;5102571;28;20024;-65
2021/09/28 05:54:27;;;;;;;4.53;3.45;;;;;;;13.48;91.61;96373.44;5104398;28;20027;-69
2021/09/28 05:56:58;;;;;;;8.02;4.32;;;;;;;13.48;91.89;96372.63;5102043;28;20498;-70
2021/09/28 05:59:32;;;;;;;17.13;4.88;;;;;;;13.51;91.12;96367.06;5105525;27;20020;-74
2021/09/28 06:01:57;;;;;;;9.23;4.30;;;;;;;13.54;91.54;96362.31;5106270;28;20466;-70
2021/09/28 06:04:23;;;;;;;5.20;4.05;;;;;;;13.54;92.60;96370.25;5116115;27;20027;-66
2021/09/28 06:06:55;;;;;;;5.45;2.92;;;;;;;13.55;92.37;96369.28;5104769;28;20578;-66
2021/09/28 06:09:23;;;;;;;4.10;2.30;;;;;;;13.58;91.96;96368.97;5097576;28;20050;-69
2021/09/28 06:11:49;;;;;;;5.10;2.30;;;;;;;13.61;91.37;96373.16;5106338;27;20403;-66
2021/09/28 06:14:15;;;;;;;4.85;2.40;;;;;;;13.63;92.14;96365.91;5105794;28;20027;-65
2021/09/28 06:16:40;;;;;;;6.53;2.30;;;;;;;13.64;92.08;96372.88;5105679;28;20059;-66
2021/09/28 06:19:06;;;;;;;3.28;2.30;;;;;;;13.69;92.08;96378.56;5100053;28;20089;-68
2021/09/28 06:21:31;;;;;;;5.07;2.42;;;;;;;13.70;92.63;96369.63;5121517;27;20402;-67
2021/09/28 06:24:00;;;;;;;6.00;2.63;;;;;;;13.71;92.23;96365.19;5113556;27;20572;-67
2021/09/28 06:26:34;;;;;;;4.80;2.70;;;;;;;13.73;92.55;96360.59;5102009;28;20065;-65
2021/09/28 06:29:05;;;;;;;5.93;2.63;;;;;;;13.75;92.53;96369.22;5107969;28;20493;-66
2021/09/28 06:31:39;;;;;;;6.10;2.30;;;;;;;13.75;92.07;96364.72;5088989;28;20034;-65
2021/09/28 06:34:04;;;;;;;4.88;2.55;;;;;;;13.76;92.17;96365.59;5110265;27;20016;-66
2021/09/28 06:36:33;;;;;;;5.93;2.53;;;;;;;13.77;91.62;96371.69;5109996;28;20076;-66
2021/09/28 06:38:58;;;;;;;8.35;2.83;;;;;;;13.82;92.47;96370.28;5105600;28;20028;-66
2021/09/28 06:41:27;;;;;;;5.60;2.85;;;;;;;13.84;92.18;96368.31;5104024;28;20459;-65
2021/09/28 06:43:53;;;;;;;5.07;3.40;;;;;;;13.85;91.98;96358.59;5105990;28;20024;-66
2021/09/28 06:46:19;;;;;;;5.18;4.20;;;;;;;13.90;91.88;96364.28;5104646;28;20027;-66
2021/09/28 06:48:50;;;;;;;11.30;4.35;;;;;;;13.90;91.32;96369.56;5110992;27;20028;-67
2021/09/28 06:51:16;;;;;;;7.05;5.47;;;;;;;13.90;91.84;96358.97;5110667;27;20038;-65
2021/09/28 06:53:41;;;;;;;9.48;5.10;;;;;;;13.93;91.28;96366.63;5108718;28;20449;-66
2021/09/28 06:56:07;;;;;;;7.82;5.13;;;;;;;13.98;90.57;96368.84;5105550;28;20020;-66
2021/09/28 06:58:33;;;;;;;8.10;4.95;;;;;;;14.09;90.50;96367.81;5098174;28;20471;-66
2021/09/28 07:00:58;;;;;;;6.25;4.53;;;;;;;14.08;90.79;96366.97;5097767;28;20024;-65
2021/09/28 07:03:24;;;;;;;4.75;4.10;;;;;;;14.11;90.46;96368.50;5096706;28;20444;-66
2021/09/28 07:05:50;;;;;;;7.30;3.60;;;;;;;14.16;90.21;96366.22;5103460;28;20062;-66
2021/09/28 07:08:15;;;;;;;4.60;3.58;;;;;;;14.23;89.73;96369.94;5090011;28;20077;-66
2021/09/28 07:10:41;;;;;;;6.00;4.07;;;;;;;14.28;89.71;96367.69;5106028;28;20088;-66
2021/09/28 07:13:07;;;;;;;5.38;4.05;;;;;;;14.41;86.95;96371.78;5100934;28;20069;-66
2021/09/28 07:15:32;;;;;;;8.35;4.30;;;;;;;14.43;86.05;96368.03;5112471;27;20020;-66
2021/09/28 07:17:58;;;;;;;6.05;4.07;;;;;;;14.38;86.41;96364.16;5108008;28;20429;-66
2021/09/28 07:20:23;;;;;;;4.28;3.88;;;;;;;14.36;86.46;96363.47;5125009;27;20066;-67
2021/09/28 07:22:49;;;;;;;6.50;4.10;;;;;;;14.37;86.49;96365.13;5114771;28;20023;-68
2021/09/28 07:25:15;;;;;;;10.20;4.13;;;;;;;14.50;85.58;96356.81;5099924;28;20040;-69
2021/09/28 07:27:40;;;;;;;4.43;3.97;;;;;;;14.45;85.92;96354.59;5114660;28;20031;-67
2021/09/28 07:30:07;;;;;;;7.47;3.85;;;;;;;14.56;86.12;96362.34;5114160;28;20106;-66
2021/09/28 07:32:32;;;;;;;6.63;4.20;;;;;;;14.57;85.09;96363.16;5109478;28;20042;-66
2021/09/28 07:34:58;;;;;;;7.18;4.93;;;;;;;14.61;85.61;96361.91;5107731;28;20486;-66
2021/09/28 07:37:27;;;;;;;6.70;4.60;;;;;;;14.67;85.76;96349.84;5108524;28;20039;-67
2021/09/28 07:39:54;;;;;;;5.10;4.50;;;;;;;14.75;85.69;96348.13;5080917;28;20464;-68
2021/09/28 07:42:20;;;;;;;6.80;3.60;;;;;;;14.80;85.23;96346.84;5107903;28;20072;-67
2021/09/28 07:44:46;;;;;;;6.93;4.50;;;;;;;14.87;85.32;96345.28;5102603;28;20104;-65
2021/09/28 07:47:12;;;;;;;6.88;4.22;;;;;;;15.03;84.16;96342.75;5090276;28;20027;-65
2021/09/28 07:49:38;;;;;;;12.40;4.65;;;;;;;15.15;83.88;96343.34;5103889;28;20032;-65
2021/09/28 07:52:03;;;;;;;4.45;4.05;;;;;;;15.22;82.53;96334.75;5105363;28;20497;-66
2021/09/28 07:54:29;;;;;;;4.45;3.70;;;;;;;15.23;83.03;96336.44;5102505;28;20050;-68
2021/09/28 07:56:54;;;;;;;4.78;4.07;;;;;;;15.23;82.78;96328.47;5107635;28;20020;-67
2021/09/28 07:59:19;;;;;;;7.18;4.03;;;;;;;15.16;83.16;96331.75;5104579;28;20367;-66
2021/09/28 08:01:45;;;;;;;6.15;4.50;;;;;;;15.12;83.77;96318.94;5085996;28;20039;-66
2021/09/28 08:04:10;;;;;;;5.18;4.68;;;;;;;15.14;83.99;96324.91;5104801;28;20015;-65
2021/09/28 08:06:36;;;;;;;7.43;3.90;;;;;;;15.23;83.01;96326.63;5112014;28;20016;-65
2021/09/28 08:09:01;;;;;;;7.55;3.60;;;;;;;15.20;82.45;96334.09;5099017;28;20061;-67
2021/09/28 08:11:26;;;;;;;7.72;3.88;;;;;;;15.05;83.45;96329.34;5104349;28;20095;-67
2021/09/28 08:13:52;;;;;;;5.80;3.90;;;;;;;15.13;83.50;96326.72;5088949;28;20411;-67
2021/09/28 08:16:17;;;;;;;9.32;3.55;;;;;;;15.14;83.62;96331.06;5097486;28;20036;-69
2021/09/28 08:18:43;;;;;;;5.25;4.25;;;;;;;15.28;83.32;96329.66;5103902;28;20023;-67
2021/09/28 08:21:08;;;;;;;6.70;3.97;;;;;;;15.34;83.57;96336.16;5116573;28;20030;-66
2021/09/28 08:23:36;;;;;;;7.00;3.95;;;;;;;15.36;83.88;96331.53;5125689;27;20050;-66
2021/09/28 08:29:09;;;;;;;5.50;4.20;;;;;;;15.41;83.06;96328.41;5114890;27;20024;-68
2021/09/28 08:31:31;;;;;;;10.77;4.30;;;;;;;15.55;82.96;96334.94;5110371;28;20122;-67
2021/09/28 08:33:57;;;;;;;4.60;3.67;;;;;;;15.69;81.84;96349.44;5119993;27;20497;-66
2021/09/28 08:36:22;;;;;;;6.40;3.95;;;;;;;15.67;82.25;96339.00;5119081;27;20015;-71
2021/09/28 08:38:47;;;;;;;5.28;3.60;;;;;;;15.79;81.94;96344.03;5118267;27;20059;-69
2021/09/28 08:41:15;;;;;;;6.63;4.00;;;;;;;15.86;81.02;96350.38;5107240;28;20373;-71
2021/09/28 08:43:40;;;;;;;8.35;3.95;;;;;;;15.89;81.59;96342.13;5107305;28;20106;-70
2021/09/28 08:46:06;;;;;;;9.65;7.28;;;;;;;15.89;79.68;96345.59;5119421;27;20099;-68
2021/09/28 08:48:31;;;;;;;7.57;4.43;;;;;;;15.86;80.50;96350.38;5116453;27;20012;-67
2021/09/28 08:50:56;;;;;;;6.15;3.95;;;;;;;15.88;79.68;96349.25;5113520;27;20466;-69
2021/09/28 08:53:22;;;;;;;6.80;4.07;;;;;;;15.89;79.88;96353.56;5110405;28;20031;-68
2021/09/28 08:55:47;;;;;;;4.50;3.78;;;;;;;15.98;79.39;96343.81;5112447;27;20023;-67
2021/09/28 08:58:21;;;;;;;4.85;3.55;;;;;;;15.86;78.80;96337.09;5106643;27;20031;-68
2021/09/28 09:00:48;;;;;;;5.30;3.75;;;;;;;15.77;78.24;96338.91;5101995;28;20467;-68
2021/09/28 09:03:26;;;;;;;4.72;3.30;;;;;;;15.82;78.19;96330.47;5106053;27;20030;-69
2021/09/28 09:05:52;;;;;;;6.20;3.70;;;;;;;15.85;78.73;96320.34;5113406;27;20020;-69
2021/09/28 09:08:25;;;;;;;6.30;3.17;;;;;;;15.92;78.46;96320.56;5108968;27;20035;-69
2021/09/28 09:11:12;;;;;;;3.20;2.90;;;;;;;15.88;78.34;96313.88;5114643;27;20020;-69
2021/09/28 09:13:39;;;;;;;3.78;3.30;;;;;;;15.84;77.94;96309.91;5118619;27;20505;-69
2021/09/28 09:16:05;;;;;;;7.93;5.03;;;;;;;15.73;78.14;96303.88;5106022;28;20023;-69
2021/09/28 09:18:35;;;;;;;13.77;5.22;;;;;;;15.67;78.43;96301.84;5101371;28;20512;-69
2021/09/28 09:21:03;;;;;;;7.50;3.38;;;;;;;15.61;78.82;96307.81;5108196;27;20098;-69
2021/09/28 09:23:40;;;;;;;5.80;3.03;;;;;;;15.65;78.61;96308.28;5126602;27;20041;-69
2021/09/28 09:26:17;;;;;;;5.25;3.22;;;;;;;15.68;77.59;96300.00;5113052;27;20750;-69
2021/09/28 09:28:54;;;;;;;11.85;5.40;;;;;;;15.69;76.71;96297.22;5116552;27;20023;-69
2021/09/28 09:31:33;;;;;;;6.65;3.75;;;;;;;15.75;76.70;96299.22;5093346;28;20364;-69
2021/09/28 09:34:19;;;;;;;5.25;2.53;;;;;;;15.89;76.07;96294.34;5094421;28;20410;-69
2021/09/28 09:37:14;;;;;;;4.25;3.33;;;;;;;16.03;74.55;96295.53;5096103;28;20032;-69
2021/09/28 09:39:50;;;;;;;9.35;4.57;;;;;;;16.11;74.44;96287.59;5077228;28;20031;-70
2021/09/28 09:42:16;;;;;;;5.32;2.75;;;;;;;16.16;73.22;96284.44;5111075;28;20032;-70
2021/09/28 09:44:42;;;;;;;5.20;2.55;;;;;;;16.23;73.30;96285.44;5110506;28;20042;-70
2021/09/28 09:47:25;;;;;;;6.70;2.50;;;;;;;16.43;73.10;96286.00;5106067;28;20120;-69
2021/09/28 09:49:50;;;;;;;3.25;2.15;;;;;;;16.56;73.36;96287.31;5105640;28;20028;-69
2021/09/28 09:52:15;;;;;;;2.47;1.98;;;;;;;16.61;70.45;96287.69;5104891;28;20035;-69
2021/09/28 09:54:44;;;;;;;3.95;2.88;;;;;;;16.72;70.28;96283.88;5102897;28;20019;-69
2021/09/28 09:57:12;;;;;;;3.28;2.80;;;;;;;16.95;67.58;96281.34;5097198;28;20475;-69
2021/09/28 09:59:39;;;;;;;4.88;2.85;;;;;;;16.77;69.57;96276.22;5107713;27;20095;-69
2021/09/28 10:02:06;;;;;;;3.38;2.90;;;;;;;16.70;68.99;96273.38;5103329;27;20031;-70
2021/09/28 10:04:32;;;;;;;11.40;3.50;;;;;;;16.83;69.57;96272.88;5123682;27;20129;-69
2021/09/28 10:07:01;;;;;;;5.32;3.42;;;;;;;17.06;69.28;96266.91;5121449;27;20174;-69
2021/09/28 10:09:30;;;;;;;5.05;3.55;;;;;;;16.99;69.11;96260.63;5108964;27;20034;-70
2021/09/28 10:12:17;;;;;;;5.63;2.88;;;;;;;17.07;69.75;96254.44;5102618;28;20110;-70
2021/09/28 10:14:44;;;;;;;5.25;3.25;;;;;;;17.25;68.20;96257.75;5093735;28;20024;-68
2021/09/28 10:17:22;;;;;;;3.90;2.60;;;;;;;17.20;68.21;96251.28;5093350;28;20667;-69
2021/09/28 10:19:52;;;;;;;3.03;2.83;;;;;;;17.30;68.65;96252.75;5094227;28;20493;-69
2021/09/28 10:22:36;;;;;;;5.35;3.25;;;;;;;17.49;68.32;96247.19;5121117;27;20027;-69
2021/09/28 10:25:20;;;;;;;7.60;3.50;;;;;;;17.70;66.72;96247.44;5117340;27;20039;-70
2021/09/28 10:27:50;;;;;;;4.35;3.38;;;;;;;17.70;66.53;96243.97;5114046;27;20397;-69
2021/09/28 10:30:31;;;;;;;3.60;3.30;;;;;;;17.62;66.75;96242.16;5107562;27;20024;-69
2021/09/28 10:33:25;;;;;;;4.63;3.03;;;;;;;17.68;67.52;96230.81;5115458;27;20108;-69
2021/09/28 10:36:01;;;;;;;4.93;3.55;;;;;;;17.98;66.24;96233.63;5098802;28;20063;-66
2021/09/28 10:38:58;;;;;;;9.52;3.10;;;;;;;18.25;65.93;96226.19;5116965;27;20410;-69
2021/09/28 10:41:38;;;;;;;4.20;3.15;;;;;;;18.63;63.34;96222.75;5105988;28;20027;-68
2021/09/28 10:44:29;;;;;;;4.28;3.10;;;;;;;18.78;62.63;96220.09;5096506;28;20036;-68
2021/09/28 10:46:56;;;;;;;5.00;3.35;;;;;;;18.88;63.33;96212.66;5102072;28;20020;-68
2021/09/28 10:49:25;;;;;;;4.40;3.10;;;;;;;18.77;62.81;96207.78;5104731;28;20031;-68
2021/09/28 10:52:10;;;;;;;5.55;3.28;;;;;;;18.97;62.34;96196.59;5101762;28;20518;-68
2021/09/28 10:55:09;;;;;;;8.02;3.10;;;;;;;19.35;61.29;96190.38;5103505;28;20062;-68
2021/09/28 10:57:58;;;;;;;5.03;2.92;;;;;;;19.71;60.24;96182.38;5097878;28;20114;-68
2021/09/28 11:00:49;;;;;;;7.20;3.28;;;;;;;19.60;59.71;96181.03;5094510;28;20027;-68
2021/09/28 11:03:17;;;;;;;6.97;3.13;;;;;;;19.94;58.54;96180.63;5090494;28;20505;-69
2021/09/28 11:05:44;;;;;;;8.57;3.15;;;;;;;20.20;58.18;96177.38;5108432;28;20023;-69
2021/09/28 11:08:12;;;;;;;3.20;3.00;;;;;;;20.24;57.41;96170.66;5110000;28;20027;-69
2021/09/28 11:10:38;;;;;;;3.90;2.80;;;;;;;20.39;57.15;96172.41;5110455;28;20130;-68
2021/09/28 11:13:07;;;;;;;3.90;2.63;;;;;;;20.55;57.19;96158.78;5121204;27;20534;-69
2021/09/28 11:15:33;;;;;;;4.10;2.83;;;;;;;20.55;56.59;96161.44;5110015;28;20027;-69
2021/09/28 11:18:12;;;;;;;2.60;2.40;;;;;;;20.49;56.24;96156.03;5097902;28;20080;-69
2021/09/28 11:20:40;;;;;;;4.95;2.60;;;;;;;20.17;57.34;96162.56;5080503;28;20483;-73
2021/09/28 11:23:11;;;;;;;3.58;2.85;;;;;;;19.97;59.49;96172.22;5109829;28;20566;-74
2021/09/28 11:25:38;;;;;;;3.75;3.28;;;;;;;20.02;59.34;96172.47;5121123;28;20061;-72
2021/09/28 11:28:08;;;;;;;2.80;2.50;;;;;;;20.20;58.86;96171.22;5109839;28;20020;-73
2021/09/28 11:30:36;;;;;;;8.32;2.95;;;;;;;20.02;58.65;96175.16;5110008;28;20512;-75
2021/09/28 11:33:04;;;;;;;3.33;3.00;;;;;;;19.95;59.20;96175.06;5110476;28;20042;-75
2021/09/28 11:35:30;;;;;;;3.65;3.33;;;;;;;19.84;59.13;96170.22;5110347;28;20102;-74
2021/09/28 11:38:02;;;;;;;3.35;3.05;;;;;;;19.94;58.53;96167.25;5109277;28;20108;-74
2021/09/28 11:40:35;;;;;;;3.67;3.00;;;;;;;19.52;59.34;96170.47;5108649;28;20023;-74